Time;durP1;ratioP1;P1;durP2;ratioP2;P2;SDS_P1;SDS_P2;PMS_P1;PMS_P2;Temp;Humidity;BMP_temperature;BMP_pressure;BME280_temperature;BME280_humidity;BME280_pressure;Samples;Min_cycle;Max_cycle;Signal;HPM_P1;HPM_P2
2022/12/10 00:00:18;;;;;;;46.17;17.50;;;1.70;99.90;;;;;;4994720;28;20022;-93
2022/12/10 00:02:43;;;;;;;44.03;17.60;;;1.70;99.90;;;;;;4992365;28;20030;-92
2022/12/10 00:05:09;;;;;;;39.72;17.30;;;1.60;99.90;;;;;;4993242;28;20018;-89
2022/12/10 00:07:34;;;;;;;43.00;17.30;;;1.60;99.90;;;;;;4994747;28;20037;-90
2022/12/10 00:10:00;;;;;;;34.55;13.38;;;1.60;99.90;;;;;;4993860;28;20388;-90
2022/12/10 00:12:26;;;;;;;31.98;11.80;;;1.60;99.90;;;;;;4993451;28;20046;-92
2022/12/10 00:14:52;;;;;;;35.42;12.27;;;1.60;99.90;;;;;;4993502;28;20054;-93
2022/12/10 00:17:17;;;;;;;32.42;14.20;;;1.60;99.90;;;;;;4993445;28;20056;-90
2022/12/10 00:19:43;;;;;;;36.80;13.60;;;1.60;99.90;;;;;;4993670;28;20058;-92
2022/12/10 00:22:08;;;;;;;40.78;15.88;;;1.60;99.90;;;;;;4994156;28;20386;-91
2022/12/10 00:24:34;;;;;;;34.28;13.85;;;1.70;99.90;;;;;;4994346;28;20026;-91
2022/12/10 00:27:00;;;;;;;35.30;13.88;;;1.60;99.90;;;;;;4994235;28;20531;-93
2022/12/10 00:29:25;;;;;;;39.92;15.73;;;1.70;99.90;;;;;;5000125;28;20092;-92
2022/12/10 00:31:51;;;;;;;30.00;13.80;;;1.70;99.90;;;;;;5003465;28;20062;-93
2022/12/10 00:34:17;;;;;;;31.63;12.65;;;1.70;99.90;;;;;;5000650;28;20030;-92
2022/12/10 00:36:48;;;;;;;35.13;12.95;;;1.70;99.90;;;;;;4997522;28;20507;-90
2022/12/10 00:39:17;;;;;;;27.27;11.35;;;1.70;99.90;;;;;;4994113;28;20104;-91
2022/12/10 00:41:43;;;;;;;29.17;12.47;;;1.70;99.90;;;;;;4993622;28;20437;-91
2022/12/10 00:44:09;;;;;;;31.00;12.48;;;1.60;99.90;;;;;;4993267;28;20113;-91
2022/12/10 00:46:35;;;;;;;29.65;13.10;;;1.60;99.90;;;;;;4993182;28;20061;-93
2022/12/10 00:49:01;;;;;;;25.38;11.02;;;1.60;99.90;;;;;;4993382;28;20035;-91
2022/12/10 00:51:28;;;;;;;28.75;12.65;;;1.60;99.90;;;;;;4992539;28;20122;-90
2022/12/10 00:53:56;;;;;;;23.27;10.23;;;1.60;99.90;;;;;;4993048;28;20634;-91
2022/12/10 00:56:26;;;;;;;22.88;10.23;;;1.60;99.90;;;;;;4993095;28;20054;-89
2022/12/10 00:58:52;;;;;;;24.83;10.77;;;1.70;99.90;;;;;;4992554;28;20027;-90
2022/12/10 01:01:33;;;;;;;25.40;10.55;;;1.70;99.90;;;;;;4992852;28;20085;-91
2022/12/10 01:04:03;;;;;;;21.55;9.75;;;1.70;99.90;;;;;;4992817;28;20415;-90
2022/12/10 01:06:31;;;;;;;20.03;9.40;;;1.70;99.90;;;;;;4992019;28;20502;-90
2022/12/10 01:09:01;;;;;;;21.50;9.60;;;1.80;99.90;;;;;;4992255;28;20027;-91
2022/12/10 01:11:30;;;;;;;20.77;9.32;;;1.80;99.90;;;;;;4992492;28;20042;-91
2022/12/10 01:13:57;;;;;;;17.13;7.33;;;1.80;99.90;;;;;;4992533;28;20080;-91
2022/12/10 01:16:24;;;;;;;18.90;8.90;;;1.80;99.90;;;;;;4993073;28;20045;-93
2022/12/10 01:18:49;;;;;;;18.33;8.35;;;1.80;99.90;;;;;;4993104;28;20023;-89
2022/12/10 01:21:19;;;;;;;20.55;9.15;;;1.80;99.90;;;;;;4992437;28;20026;-92
2022/12/10 01:23:46;;;;;;;20.45;8.25;;;1.80;99.90;;;;;;4992605;28;20026;-92
2022/12/10 01:26:19;;;;;;;20.92;8.35;;;1.80;99.90;;;;;;4993245;28;20040;-90
2022/12/10 01:28:45;;;;;;;18.10;8.43;;;1.80;99.90;;;;;;4992364;28;20022;-90
2022/12/10 01:31:17;;;;;;;23.40;9.00;;;1.70;99.90;;;;;;4992093;28;20042;-93
2022/12/10 01:33:42;;;;;;;23.27;9.43;;;1.80;99.90;;;;;;4992018;28;20484;-91
2022/12/10 01:36:11;;;;;;;22.40;9.70;;;1.80;99.90;;;;;;4992647;28;20044;-91
2022/12/10 01:38:38;;;;;;;19.13;7.80;;;1.80;99.90;;;;;;4991975;28;20097;-93
2022/12/10 01:41:04;;;;;;;19.05;8.27;;;1.80;99.90;;;;;;4991991;28;20030;-90
2022/12/10 01:44:00;;;;;;;21.88;9.00;;;1.80;99.90;;;;;;4991881;28;20030;-91
2022/12/10 01:46:32;;;;;;;22.85;8.73;;;1.80;99.90;;;;;;4992356;28;20030;-92
2022/12/10 01:48:59;;;;;;;20.20;8.65;;;1.80;99.90;;;;;;4992342;28;20030;-90
2022/12/10 01:51:28;;;;;;;19.17;9.13;;;1.80;99.90;;;;;;4992020;28;20042;-92
2022/12/10 01:53:54;;;;;;;24.42;10.38;;;1.70;99.90;;;;;;4991748;28;20030;-91
2022/12/10 01:56:21;;;;;;;23.45;10.27;;;1.80;99.90;;;;;;4991562;28;20038;-88
2022/12/10 01:58:50;;;;;;;22.63;9.70;;;1.80;99.90;;;;;;4991903;28;20118;-90
2022/12/10 02:01:26;;;;;;;23.88;9.18;;;1.80;99.90;;;;;;4992369;28;20027;-92
2022/12/10 02:04:25;;;;;;;27.50;10.27;;;1.80;99.90;;;;;;4992205;28;20104;-90
2022/12/10 02:07:19;;;;;;;30.02;11.82;;;1.80;99.90;;;;;;4992359;28;20443;-93
2022/12/10 02:09:58;;;;;;;33.13;11.40;;;1.80;99.90;;;;;;4986362;28;20054;-91
2022/12/10 02:12:36;;;;;;;33.30;12.65;;;1.70;99.90;;;;;;4991340;28;20125;-92
2022/12/10 02:15:29;;;;;;;33.15;13.07;;;1.80;99.90;;;;;;4991502;28;20025;-92
2022/12/10 02:18:17;;;;;;;33.72;11.70;;;1.70;99.90;;;;;;4983678;28;20046;-92
2022/12/10 02:20:54;;;;;;;31.98;12.15;;;1.70;99.90;;;;;;4982461;28;20058;-90
2022/12/10 02:23:46;;;;;;;29.27;12.20;;;1.70;99.90;;;;;;4989927;28;20054;-92
2022/12/10 02:26:22;;;;;;;34.33;12.57;;;1.60;99.90;;;;;;4990941;28;20169;-91
2022/12/10 02:29:09;;;;;;;35.63;13.57;;;1.60;99.90;;;;;;4989521;28;20022;-92
2022/12/10 02:31:37;;;;;;;36.38;13.43;;;1.60;99.90;;;;;;4988312;28;20049;-90
2022/12/10 02:34:06;;;;;;;34.10;12.32;;;1.60;99.90;;;;;;4989202;28;20022;-93
2022/12/10 02:36:36;;;;;;;29.57;11.13;;;1.60;99.90;;;;;;4995385;28;20030;-91
2022/12/10 02:39:07;;;;;;;29.98;12.32;;;1.50;99.90;;;;;;4991381;28;20281;-90
2022/12/10 02:41:34;;;;;;;;;;;1.60;99.90;;;;;;5000504;28;20089;-92
2022/12/10 02:44:04;;;;;;;31.45;11.20;;;1.50;99.90;;;;;;4995957;28;19956;-91
2022/12/10 02:46:33;;;;;;;36.13;13.27;;;1.50;99.90;;;;;;4997143;28;20018;-91
2022/12/10 02:49:01;;;;;;;32.53;13.55;;;1.50;99.90;;;;;;4993809;28;20026;-92
2022/12/10 02:51:27;;;;;;;30.20;12.68;;;1.50;99.90;;;;;;4992400;28;20518;-91
2022/12/10 02:54:05;;;;;;;31.83;12.23;;;1.50;99.90;;;;;;4991928;28;20030;-93
2022/12/10 02:56:40;;;;;;;26.80;10.68;;;1.50;99.90;;;;;;4992005;28;20026;-92
2022/12/10 02:59:23;;;;;;;27.42;11.40;;;1.50;99.90;;;;;;4991817;28;20042;-91
2022/12/10 03:02:06;;;;;;;27.27;11.02;;;1.50;99.90;;;;;;4992138;28;20412;-91
2022/12/10 03:04:39;;;;;;;30.27;12.38;;;1.60;99.90;;;;;;4991229;28;20054;-92
2022/12/10 03:07:12;;;;;;;26.73;10.68;;;1.60;99.90;;;;;;4991691;28;20104;-91
2022/12/10 03:09:44;;;;;;;28.92;10.57;;;1.60;99.90;;;;;;4991539;28;20025;-92
2022/12/10 03:12:28;;;;;;;28.08;10.98;;;1.60;99.90;;;;;;4991142;28;20121;-92
2022/12/10 03:15:00;;;;;;;26.05;11.13;;;1.60;99.90;;;;;;4991149;28;20121;-90
2022/12/10 03:17:28;;;;;;;29.15;11.60;;;1.50;99.90;;;;;;4991129;28;20078;-93
2022/12/10 03:19:56;;;;;;;31.00;11.77;;;1.60;99.90;;;;;;4990697;28;20023;-92
2022/12/10 03:22:22;;;;;;;29.65;10.57;;;1.50;99.90;;;;;;4990612;28;20038;-92
2022/12/10 03:24:49;;;;;;;26.33;11.02;;;1.50;99.90;;;;;;4990489;28;20034;-91
2022/12/10 03:27:17;;;;;;;27.55;11.50;;;1.60;99.90;;;;;;4991203;28;20030;-92
2022/12/10 03:29:47;;;;;;;24.25;10.20;;;1.60;99.90;;;;;;4992911;28;20035;-92
2022/12/10 03:32:15;;;;;;;25.77;11.00;;;1.60;99.90;;;;;;4994977;28;20046;-91
2022/12/10 03:34:42;;;;;;;29.70;12.30;;;1.60;99.90;;;;;;4994722;28;20138;-91
2022/12/10 03:37:08;;;;;;;25.92;10.52;;;1.60;99.90;;;;;;4994796;28;20026;-91
2022/12/10 03:39:34;;;;;;;24.98;10.75;;;1.60;99.90;;;;;;4994396;28;20055;-89
2022/12/10 03:41:59;;;;;;;24.02;10.50;;;1.60;99.90;;;;;;4994698;28;20033;-91
2022/12/10 03:44:30;;;;;;;23.65;9.98;;;1.60;99.90;;;;;;4995401;28;20113;-92
2022/12/10 03:46:56;;;;;;;24.52;10.18;;;1.60;99.90;;;;;;4994609;28;20536;-93
2022/12/10 03:49:21;;;;;;;24.23;10.30;;;1.70;99.90;;;;;;4994722;28;20127;-90
2022/12/10 03:51:47;;;;;;;22.38;10.13;;;1.60;99.90;;;;;;4994627;28;20117;-90
2022/12/10 03:54:13;;;;;;;23.23;10.77;;;1.60;99.90;;;;;;4994751;28;20022;-92
2022/12/10 03:56:38;;;;;;;24.48;10.10;;;1.60;99.90;;;;;;4994646;28;20049;-91
2022/12/10 03:59:04;;;;;;;20.58;8.93;;;1.60;99.90;;;;;;4993923;28;20069;-91
2022/12/10 04:01:30;;;;;;;23.50;9.45;;;1.60;99.90;;;;;;4994728;28;20053;-91
2022/12/10 04:03:55;;;;;;;17.27;8.90;;;1.60;99.90;;;;;;4994212;28;20435;-90
2022/12/10 04:06:21;;;;;;;19.73;9.23;;;1.70;99.90;;;;;;4994621;28;20030;-91
2022/12/10 04:08:48;;;;;;;24.27;10.50;;;1.70;99.90;;;;;;4993814;28;20550;-91
2022/12/10 04:11:15;;;;;;;22.77;10.95;;;1.70;99.90;;;;;;4993542;28;20053;-90
2022/12/10 04:16:26;;;;;;;17.63;9.05;;;1.70;99.90;;;;;;4994982;28;20166;-92
2022/12/10 04:18:52;;;;;;;18.67;8.98;;;1.70;99.90;;;;;;4994357;28;20097;-91
2022/12/10 04:26:53;;;;;;;15.27;8.70;;;1.70;99.90;;;;;;4997749;28;20485;-92
2022/12/10 04:29:29;;;;;;;17.63;8.90;;;1.70;99.90;;;;;;5005112;28;20030;-93
2022/12/10 04:31:56;;;;;;;14.63;7.95;;;1.80;99.90;;;;;;5002755;28;20041;-92
2022/12/10 04:34:23;;;;;;;13.60;7.88;;;1.80;99.90;;;;;;5003762;28;20034;-92
2022/12/10 04:36:49;;;;;;;14.10;6.80;;;1.80;99.90;;;;;;5004787;28;20053;-93
2022/12/10 04:39:15;;;;;;;11.65;6.40;;;1.90;99.90;;;;;;5001248;28;20030;-94
2022/12/10 04:41:44;;;;;;;11.88;6.85;;;1.90;99.90;;;;;;4994299;28;20041;-94
2022/12/10 04:44:11;;;;;;;13.73;7.22;;;1.90;99.90;;;;;;4997915;28;20081;-91
2022/12/10 04:46:37;;;;;;;11.88;6.30;;;1.90;99.90;;;;;;4994004;28;20030;-93
2022/12/10 04:49:03;;;;;;;16.70;6.65;;;2.00;99.90;;;;;;4992312;28;20037;-92
2022/12/10 04:51:29;;;;;;;14.00;6.72;;;2.00;99.90;;;;;;4992432;28;20031;-92
2022/12/10 04:53:55;;;;;;;11.73;6.35;;;2.00;99.90;;;;;;4992445;28;20033;-93
2022/12/10 04:56:21;;;;;;;9.55;6.43;;;2.00;99.90;;;;;;4993125;28;20022;-92
2022/12/10 04:58:46;;;;;;;8.60;5.97;;;2.00;99.90;;;;;;4993217;28;20033;-93
2022/12/10 05:01:12;;;;;;;9.38;5.93;;;2.00;99.90;;;;;;4992948;28;20045;-92
2022/12/10 05:03:38;;;;;;;10.85;6.68;;;2.10;99.90;;;;;;4992552;28;20026;-91
2022/12/10 05:06:07;;;;;;;9.23;5.82;;;2.00;99.90;;;;;;4992863;28;20484;-91
2022/12/10 05:08:33;;;;;;;8.93;5.95;;;2.00;99.90;;;;;;4991600;28;20030;-92
2022/12/10 05:11:07;;;;;;;10.25;6.88;;;2.00;99.90;;;;;;4993239;28;20101;-93
2022/12/10 05:13:33;;;;;;;10.23;6.43;;;2.00;99.90;;;;;;4992373;28;20137;-92
2022/12/10 05:16:02;;;;;;;13.23;7.10;;;2.00;99.90;;;;;;4992673;28;20109;-93
2022/12/10 05:18:27;;;;;;;12.57;7.15;;;2.00;99.90;;;;;;4992562;28;20046;-93
2022/12/10 05:20:53;;;;;;;12.75;7.32;;;1.90;99.90;;;;;;4992315;28;20041;-90
2022/12/10 05:23:27;;;;;;;11.57;7.47;;;2.00;99.90;;;;;;4992154;28;20033;-91
2022/12/10 05:26:04;;;;;;;11.95;7.60;;;1.90;99.90;;;;;;4992223;28;20184;-92
2022/12/10 05:28:33;;;;;;;13.70;7.93;;;1.90;99.90;;;;;;4992202;28;20026;-90
2022/12/10 05:31:02;;;;;;;12.40;7.70;;;1.90;99.90;;;;;;4992472;28;20038;-92
2022/12/10 05:33:28;;;;;;;19.02;9.10;;;1.90;99.90;;;;;;4991889;28;20027;-92
2022/12/10 05:35:53;;;;;;;16.67;9.82;;;1.90;99.90;;;;;;4992034;28;20030;-91
2022/12/10 05:38:20;;;;;;;17.23;10.43;;;1.90;99.90;;;;;;4991708;28;20041;-91
2022/12/10 05:40:45;;;;;;;16.88;9.60;;;1.90;99.90;;;;;;4992311;28;20106;-92
2022/12/10 05:43:11;;;;;;;16.30;9.10;;;1.90;99.90;;;;;;4991694;28;20054;-90
2022/12/10 05:45:37;;;;;;;13.23;7.88;;;1.90;99.90;;;;;;4991918;28;20484;-93
2022/12/10 05:48:02;;;;;;;16.85;9.18;;;1.90;99.90;;;;;;4991936;28;20030;-91
2022/12/10 05:50:30;;;;;;;15.93;9.38;;;1.90;99.90;;;;;;4991816;28;20540;-92
2022/12/10 05:52:56;;;;;;;19.95;10.75;;;1.90;99.90;;;;;;4991960;28;20506;-92
2022/12/10 05:55:21;;;;;;;15.45;9.90;;;1.90;99.90;;;;;;4992608;28;20026;-92
2022/12/10 05:57:47;;;;;;;14.82;8.93;;;1.90;99.90;;;;;;4996054;28;20049;-93
2022/12/10 06:00:13;;;;;;;18.38;10.93;;;1.80;99.90;;;;;;5001619;28;20037;-94
2022/12/10 06:02:39;;;;;;;18.52;10.98;;;1.80;99.90;;;;;;5001333;28;20029;-93
2022/12/10 06:05:04;;;;;;;19.48;11.50;;;1.80;99.90;;;;;;4999288;28;20029;-92
2022/12/10 06:07:30;;;;;;;20.42;10.73;;;1.80;99.90;;;;;;4997767;28;20030;-92
2022/12/10 06:09:56;;;;;;;22.70;10.82;;;1.90;99.90;;;;;;4992908;28;20464;-93
2022/12/10 06:12:21;;;;;;;19.75;11.10;;;1.80;99.90;;;;;;4992658;28;20049;-91
2022/12/10 06:14:47;;;;;;;22.60;12.00;;;1.80;99.90;;;;;;4992150;28;20049;-93
2022/12/10 06:17:13;;;;;;;18.55;10.43;;;1.80;99.90;;;;;;4993155;28;20137;-93
2022/12/10 06:19:39;;;;;;;15.68;8.75;;;1.80;99.90;;;;;;4992451;28;20060;-93
2022/12/10 06:22:04;;;;;;;15.85;9.13;;;1.80;99.90;;;;;;4992080;28;20033;-93
2022/12/10 06:24:30;;;;;;;14.32;9.00;;;1.80;99.90;;;;;;4991847;28;20026;-92
2022/12/10 06:26:56;;;;;;;14.43;8.15;;;1.80;99.90;;;;;;4992066;28;20120;-92
2022/12/10 06:29:22;;;;;;;13.05;8.45;;;1.80;99.90;;;;;;4991514;28;20547;-91
2022/12/10 06:31:47;;;;;;;14.32;7.55;;;1.80;99.90;;;;;;4991273;28;20061;-92
2022/12/10 06:34:13;;;;;;;13.57;7.90;;;1.80;99.90;;;;;;4992060;28;20031;-91
2022/12/10 06:36:39;;;;;;;13.93;8.52;;;1.80;99.90;;;;;;4992050;28;20023;-93
2022/12/10 06:39:04;;;;;;;12.73;7.80;;;1.80;99.90;;;;;;4991678;28;20080;-94
2022/12/10 06:41:30;;;;;;;13.07;7.88;;;1.80;99.90;;;;;;4991645;28;20034;-92
2022/12/10 06:43:58;;;;;;;12.95;8.23;;;1.80;99.90;;;;;;4992095;28;20326;-93
2022/12/10 06:46:25;;;;;;;11.02;7.30;;;1.80;99.90;;;;;;4991130;28;20057;-92
2022/12/10 06:48:51;;;;;;;11.20;7.22;;;1.80;99.90;;;;;;4991711;28;20026;-92
2022/12/10 06:51:17;;;;;;;12.45;6.40;;;1.80;99.90;;;;;;4992168;28;20042;-92
2022/12/10 06:53:44;;;;;;;12.82;7.90;;;1.80;99.90;;;;;;4992217;28;20026;-91
2022/12/10 06:56:15;;;;;;;12.00;7.07;;;1.80;99.90;;;;;;4991858;28;20022;-93
2022/12/10 06:58:43;;;;;;;12.23;7.20;;;1.80;99.90;;;;;;4991352;28;20098;-93
2022/12/10 07:01:12;;;;;;;10.85;6.20;;;1.80;99.90;;;;;;4991200;28;20113;-92
2022/12/10 07:03:38;;;;;;;11.60;7.30;;;1.70;99.90;;;;;;4991045;28;20034;-94
2022/12/10 07:06:05;;;;;;;11.10;6.95;;;1.80;99.90;;;;;;4994993;28;20057;-93
2022/12/10 07:08:31;;;;;;;9.63;5.68;;;1.70;99.90;;;;;;4995126;28;20125;-93
2022/12/10 07:10:57;;;;;;;11.98;6.20;;;1.70;99.90;;;;;;4995275;28;20113;-93
2022/12/10 07:13:23;;;;;;;10.85;6.00;;;1.70;99.90;;;;;;4995043;28;20038;-92
2022/12/10 07:15:49;;;;;;;11.77;6.20;;;1.80;99.90;;;;;;4994495;28;20034;-92
2022/12/10 07:18:14;;;;;;;9.57;6.05;;;1.70;99.90;;;;;;4994611;28;20524;-92
2022/12/10 07:20:40;;;;;;;12.02;6.93;;;1.70;99.90;;;;;;4994931;28;20440;-92
2022/12/10 07:23:05;;;;;;;10.38;5.60;;;1.70;99.90;;;;;;4994615;28;20057;-93
2022/12/10 07:25:32;;;;;;;11.95;6.75;;;1.70;99.90;;;;;;4994739;28;20551;-92
2022/12/10 07:27:58;;;;;;;11.88;6.55;;;1.70;99.90;;;;;;4995005;28;20030;-93
2022/12/10 07:30:24;;;;;;;13.40;6.93;;;1.70;99.90;;;;;;4994783;28;20506;-92
2022/12/10 07:32:50;;;;;;;13.88;6.80;;;1.60;99.90;;;;;;4995004;28;20202;-93
2022/12/10 07:35:15;;;;;;;11.80;6.25;;;1.60;99.90;;;;;;4994583;28;20030;-93
2022/12/10 07:37:41;;;;;;;11.35;6.40;;;1.60;99.90;;;;;;4994764;28;20084;-93
2022/12/10 07:40:07;;;;;;;11.40;6.53;;;1.60;99.90;;;;;;4994316;28;20030;-93
2022/12/10 07:42:33;;;;;;;13.10;7.50;;;1.70;99.90;;;;;;4994565;28;20026;-92
2022/12/10 07:44:58;;;;;;;13.88;7.70;;;1.60;99.90;;;;;;4994745;28;20484;-93
2022/12/10 07:47:25;;;;;;;15.88;7.70;;;1.60;99.90;;;;;;4994521;28;20026;-92
2022/12/10 07:49:51;;;;;;;13.25;7.43;;;1.60;99.90;;;;;;4994439;28;20484;-91
2022/12/10 07:52:16;;;;;;;15.82;7.95;;;1.70;99.90;;;;;;4994205;28;20125;-92
2022/12/10 07:54:42;;;;;;;13.05;7.18;;;1.70;99.90;;;;;;4994690;28;20026;-90
2022/12/10 07:57:08;;;;;;;12.38;7.00;;;1.70;99.90;;;;;;4994932;28;20038;-92
2022/12/10 07:59:33;;;;;;;11.13;6.85;;;1.70;99.90;;;;;;4995610;28;20527;-95
2022/12/10 08:01:59;;;;;;;11.32;6.35;;;1.70;99.90;;;;;;4994749;28;20040;-93
2022/12/10 08:04:28;;;;;;;12.32;6.85;;;1.70;99.90;;;;;;4994591;28;20036;-93
2022/12/10 08:06:55;;;;;;;12.30;6.75;;;1.70;99.90;;;;;;4993771;28;20025;-92
2022/12/10 08:09:20;;;;;;;9.75;5.80;;;1.80;99.90;;;;;;4993207;28;20571;-92
2022/12/10 08:11:46;;;;;;;8.80;5.57;;;1.80;99.90;;;;;;4993931;28;20121;-94
2022/12/10 08:14:12;;;;;;;10.25;5.50;;;1.80;99.90;;;;;;4993575;28;20026;-93
2022/12/10 08:16:37;;;;;;;11.02;5.90;;;1.80;99.90;;;;;;4993135;28;20176;-94
2022/12/10 08:19:03;;;;;;;7.25;4.75;;;1.80;99.90;;;;;;4994891;28;20019;-94
2022/12/10 08:21:31;;;;;;;7.45;4.93;;;1.80;99.90;;;;;;5003508;28;20146;-93
2022/12/10 08:23:57;;;;;;;11.02;5.90;;;1.80;99.90;;;;;;5011346;28;20027;-92
2022/12/10 08:26:25;;;;;;;10.40;5.32;;;1.80;99.90;;;;;;5007912;28;20018;-91
2022/12/10 08:28:53;;;;;;;12.57;6.10;;;1.70;99.90;;;;;;5013900;28;20026;-89
2022/12/10 08:31:21;;;;;;;13.63;6.50;;;1.80;99.90;;;;;;5010163;28;20046;-91
2022/12/10 08:33:47;;;;;;;18.83;9.43;;;1.80;99.90;;;;;;5016095;28;20023;-90
2022/12/10 08:36:15;;;;;;;14.32;6.63;;;1.80;99.90;;;;;;5004729;28;20073;-93
2022/12/10 08:38:41;;;;;;;11.93;6.28;;;1.80;99.90;;;;;;4993994;28;20065;-94
2022/12/10 08:41:13;;;;;;;13.13;7.78;;;1.90;99.90;;;;;;4994451;28;20034;-92
2022/12/10 08:43:39;;;;;;;13.52;7.60;;;1.90;99.90;;;;;;4993440;28;20141;-92
2022/12/10 08:46:06;;;;;;;12.23;7.07;;;1.90;99.90;;;;;;4994488;28;20022;-94
2022/12/10 08:48:32;;;;;;;14.63;7.85;;;1.90;99.90;;;;;;4994377;28;20037;-93
2022/12/10 08:50:58;;;;;;;13.13;7.00;;;1.90;99.90;;;;;;5004118;28;20029;-92
2022/12/10 08:53:24;;;;;;;14.63;7.50;;;1.90;99.90;;;;;;4981142;28;20038;-95
2022/12/10 08:55:53;;;;;;;12.95;7.43;;;1.90;99.90;;;;;;4999663;28;20027;-94
2022/12/10 08:58:20;;;;;;;15.27;7.38;;;1.90;99.90;;;;;;4998570;28;20034;-95
2022/12/10 09:00:48;;;;;;;16.38;8.32;;;2.00;99.90;;;;;;4998400;28;20027;-95
2022/12/10 09:03:14;;;;;;;16.00;8.05;;;2.00;99.90;;;;;;5003068;28;20030;-96
2022/12/10 09:05:40;;;;;;;14.75;8.18;;;2.00;99.90;;;;;;5006472;28;20026;-95
2022/12/10 09:08:06;;;;;;;14.57;8.25;;;2.00;99.90;;;;;;5007496;28;20108;-96
2022/12/10 09:10:32;;;;;;;16.42;8.65;;;2.10;99.90;;;;;;5006097;28;20038;-95
2022/12/10 09:12:57;;;;;;;14.15;8.18;;;2.10;99.90;;;;;;5002130;28;20030;-93
2022/12/10 09:15:23;;;;;;;16.05;8.85;;;2.20;99.90;;;;;;5003229;28;20042;-94
2022/12/10 09:17:49;;;;;;;15.73;8.90;;;2.30;99.90;;;;;;5001440;28;20050;-93
2022/12/10 09:20:15;;;;;;;18.30;7.95;;;2.30;99.90;;;;;;4997428;28;20054;-94
2022/12/10 09:22:40;;;;;;;17.52;10.30;;;2.40;99.90;;;;;;4999507;28;20023;-95
2022/12/10 09:25:09;;;;;;;15.52;9.07;;;2.60;99.90;;;;;;4995359;28;20030;-95
2022/12/10 09:27:36;;;;;;;17.88;9.18;;;2.70;99.90;;;;;;4996617;28;20026;-96
2022/12/10 09:30:04;;;;;;;18.13;8.57;;;2.90;99.90;;;;;;4994945;28;20113;-93
2022/12/10 09:32:30;;;;;;;14.63;8.48;;;3.10;99.90;;;;;;4995105;28;20026;-94
2022/12/10 09:34:55;;;;;;;16.38;8.77;;;3.20;99.90;;;;;;4994973;28;20034;-95
2022/12/10 09:37:21;;;;;;;18.38;8.70;;;3.40;99.90;;;;;;4994378;28;20336;-94
2022/12/10 09:39:47;;;;;;;21.95;9.27;;;3.50;99.90;;;;;;4993953;28;20416;-96
2022/12/10 09:42:27;;;;;;;14.32;8.45;;;3.50;99.90;;;;;;4993791;28;20484;-96
2022/12/10 09:45:14;;;;;;;18.75;8.88;;;3.60;99.90;;;;;;4993843;28;20018;-95
2022/12/10 09:48:15;;;;;;;15.40;8.95;;;3.70;99.90;;;;;;4996227;28;20034;-93
2022/12/10 09:50:48;;;;;;;;;;;3.80;99.90;;;;;;4996181;28;20033;-96
2022/12/10 09:53:18;;;;;;;16.45;8.38;;;3.90;99.90;;;;;;5000348;28;19928;-96
2022/12/10 09:55:46;;;;;;;20.25;10.18;;;3.90;99.90;;;;;;4995060;28;20125;-94
2022/12/10 09:58:21;;;;;;;13.98;7.72;;;4.00;99.90;;;;;;4994812;28;20029;-94
2022/12/10 10:00:54;;;;;;;11.38;5.82;;;4.00;99.90;;;;;;4978391;28;20058;-95
2022/12/10 10:03:21;;;;;;;14.25;6.45;;;4.00;99.90;;;;;;4998992;28;20141;-94
2022/12/10 10:05:50;;;;;;;10.52;5.93;;;4.00;99.90;;;;;;4996232;28;20018;-95
2022/12/10 10:08:56;;;;;;;10.98;7.20;;;4.10;99.90;;;;;;4998355;28;20049;-94
2022/12/10 10:11:27;;;;;;;13.65;6.82;;;4.20;99.90;;;;;;4997110;28;20027;-95
2022/12/10 10:13:59;;;;;;;11.85;6.75;;;4.20;99.90;;;;;;5000258;28;20022;-95
2022/12/10 10:16:26;;;;;;;13.55;6.30;;;4.30;99.90;;;;;;5001343;28;20120;-95
2022/12/10 10:18:59;;;;;;;12.27;6.35;;;4.40;99.90;;;;;;4997598;28;20421;-93
2022/12/10 10:21:49;;;;;;;10.25;6.05;;;4.40;99.90;;;;;;4997197;28;20073;-95
2022/12/10 10:24:18;;;;;;;9.93;6.10;;;4.40;99.90;;;;;;4990973;28;20074;-93
2022/12/10 10:26:45;;;;;;;13.85;6.30;;;4.40;99.90;;;;;;5003835;28;20085;-94
2022/12/10 10:29:17;;;;;;;12.55;6.57;;;4.40;99.90;;;;;;5003198;28;20019;-94
2022/12/10 10:31:45;;;;;;;10.93;6.82;;;4.40;99.90;;;;;;5003612;28;20031;-91
2022/12/10 10:34:18;;;;;;;16.75;7.85;;;4.30;99.90;;;;;;5011760;28;20003;-95
2022/12/10 10:36:44;;;;;;;17.42;7.18;;;4.30;99.90;;;;;;5016107;28;20034;-93
2022/12/10 10:39:18;;;;;;;13.10;7.22;;;4.20;99.90;;;;;;5011591;28;20082;-94
2022/12/10 10:41:48;;;;;;;18.00;8.25;;;4.20;99.90;;;;;;5015070;28;20033;-94
2022/12/10 10:44:18;;;;;;;14.82;7.90;;;4.10;99.90;;;;;;5014192;28;20057;-93
2022/12/10 10:46:47;;;;;;;17.60;7.20;;;4.00;99.90;;;;;;5015256;28;20007;-91
2022/12/10 10:49:18;;;;;;;16.25;6.57;;;3.90;99.90;;;;;;5016358;28;20014;-92
2022/12/10 10:51:46;;;;;;;14.73;6.15;;;3.80;99.90;;;;;;5015528;28;20042;-94
2022/12/10 10:54:39;;;;;;;10.05;5.22;;;3.80;99.90;;;;;;5004763;28;20365;-95
2022/12/10 10:57:36;;;;;;;8.48;5.18;;;3.70;99.90;;;;;;4988068;28;20037;-94
2022/12/10 11:00:23;;;;;;;5.50;3.10;;;3.70;99.90;;;;;;4999157;28;20549;-91
2022/12/10 11:02:49;;;;;;;5.68;3.47;;;3.60;99.90;;;;;;4998819;28;20026;-94
2022/12/10 11:05:27;;;;;;;5.40;3.15;;;3.50;99.90;;;;;;5003057;28;20419;-94
2022/12/10 11:08:04;;;;;;;4.75;3.40;;;3.40;99.90;;;;;;4997728;28;20025;-96
2022/12/10 11:10:30;;;;;;;4.88;3.13;;;3.30;99.90;;;;;;4992855;28;20043;-93
2022/12/10 11:13:07;;;;;;;5.05;3.15;;;3.30;99.90;;;;;;4997587;28;20034;-93
2022/12/10 11:15:44;;;;;;;5.18;3.17;;;3.30;99.90;;;;;;5000220;28;20030;-94
2022/12/10 11:18:33;;;;;;;4.07;3.40;;;3.30;99.90;;;;;;4995371;28;20204;-94
2022/12/10 11:21:13;;;;;;;3.88;3.28;;;3.30;99.90;;;;;;4985369;28;20034;-96
2022/12/10 11:23:42;;;;;;;4.60;2.58;;;3.20;99.90;;;;;;4978426;28;20496;-94
2022/12/10 11:26:33;;;;;;;5.15;3.63;;;3.20;99.90;;;;;;4994485;28;20030;-92
2022/12/10 11:29:28;;;;;;;5.70;3.60;;;3.10;99.90;;;;;;4991099;28;20038;-93
2022/12/10 11:32:13;;;;;;;3.60;3.00;;;3.10;99.90;;;;;;4990452;28;20133;-93
2022/12/10 11:35:00;;;;;;;4.10;3.22;;;3.00;99.90;;;;;;4991262;28;20031;-93
2022/12/10 11:37:38;;;;;;;4.68;3.30;;;3.00;99.90;;;;;;4992063;28;20023;-93
2022/12/10 11:40:28;;;;;;;4.57;3.72;;;3.00;99.90;;;;;;4992692;28;20026;-94
2022/12/10 11:43:31;;;;;;;4.18;3.58;;;3.00;99.90;;;;;;4993828;28;20018;-94
2022/12/10 11:46:03;;;;;;;7.72;4.00;;;3.00;99.90;;;;;;4993423;28;20046;-93
2022/12/10 11:48:43;;;;;;;5.93;3.63;;;3.00;99.90;;;;;;4993302;28;20511;-95
2022/12/10 11:51:17;;;;;;;5.03;3.72;;;3.00;99.90;;;;;;4985526;28;20041;-94
2022/12/10 11:54:17;;;;;;;5.20;3.25;;;3.00;99.90;;;;;;4989454;28;20030;-94
2022/12/10 11:56:42;;;;;;;4.88;3.53;;;3.00;99.90;;;;;;4997880;28;20117;-92
2022/12/10 11:59:11;;;;;;;6.55;4.10;;;3.00;99.90;;;;;;5000522;28;20076;-93
2022/12/10 12:02:18;;;;;;;10.20;5.18;;;3.00;99.90;;;;;;4998664;28;20034;-93
2022/12/10 12:04:56;;;;;;;8.55;5.25;;;3.00;99.90;;;;;;4977407;28;20495;-92
2022/12/10 12:07:38;;;;;;;8.35;6.00;;;3.00;99.90;;;;;;4993588;28;20284;-92
2022/12/10 12:10:26;;;;;;;10.30;5.40;;;3.00;99.90;;;;;;5000160;28;20062;-93
2022/12/10 12:13:12;;;;;;;8.30;5.25;;;3.00;99.90;;;;;;5011208;28;20066;-94
2022/12/10 12:16:02;;;;;;;8.52;5.28;;;3.00;99.90;;;;;;5013241;28;20022;-92
2022/12/10 12:18:28;;;;;;;9.23;4.85;;;3.00;99.90;;;;;;5010599;28;20045;-91
2022/12/10 12:20:57;;;;;;;11.57;6.30;;;3.00;99.90;;;;;;5005378;28;20362;-92
2022/12/10 12:23:41;;;;;;;8.38;5.00;;;3.00;99.90;;;;;;5004104;28;20057;-94
2022/12/10 12:26:17;;;;;;;9.20;4.78;;;3.00;99.90;;;;;;5002547;28;20033;-94
2022/12/10 12:29:30;;;;;;;8.57;5.10;;;3.00;99.90;;;;;;5000824;28;20113;-91
2022/12/10 12:32:25;;;;;;;10.52;6.47;;;3.10;99.90;;;;;;4924371;29;20043;-91
2022/12/10 12:35:06;;;;;;;10.38;5.70;;;3.10;99.90;;;;;;4914125;29;20300;-91
2022/12/10 12:37:41;;;;;;;14.70;6.95;;;3.10;99.90;;;;;;4920519;29;20036;-90
2022/12/10 12:40:32;;;;;;;14.88;7.40;;;3.10;99.90;;;;;;4920031;29;20031;-92
2022/12/10 12:43:08;;;;;;;12.20;7.10;;;3.10;99.90;;;;;;4925544;29;20055;-90
2022/12/10 12:45:39;;;;;;;13.70;6.72;;;3.10;99.90;;;;;;4921230;29;20707;-91
2022/12/10 12:48:19;;;;;;;13.77;7.40;;;3.10;99.90;;;;;;4921168;29;20041;-93
2022/12/10 12:51:34;;;;;;;13.82;7.53;;;3.10;99.90;;;;;;4921240;29;20031;-92
2022/12/10 12:54:00;;;;;;;13.80;7.93;;;3.10;99.90;;;;;;4915547;29;20553;-91
2022/12/10 12:57:03;;;;;;;12.30;6.75;;;3.10;99.90;;;;;;4918614;29;20239;-91
2022/12/10 12:59:39;;;;;;;13.27;6.50;;;3.00;99.90;;;;;;4918175;29;20171;-92
2022/12/10 13:02:23;;;;;;;31.92;12.85;;;3.00;99.90;;;;;;4932373;28;20500;-92
2022/12/10 13:04:51;;;;;;;14.82;7.45;;;3.00;99.90;;;;;;4978176;28;20089;-94
2022/12/10 13:07:19;;;;;;;8.88;5.90;;;3.00;99.90;;;;;;4975102;28;20034;-93
2022/12/10 13:10:09;;;;;;;10.15;6.40;;;3.00;99.90;;;;;;4990104;28;20495;-92
2022/12/10 13:12:48;;;;;;;11.15;6.78;;;2.90;99.90;;;;;;4993212;28;20522;-93